sensor_id;sensor_type;location;lat;lon;timestamp;P1;durP1;ratioP1;P2;durP2;ratioP2
8944;SDS011;4507;40.232;29.132;2022-09-13T00:01:07;18.10;;;12.07;;
8944;SDS011;4507;40.232;29.132;2022-09-13T00:03:37;17.17;;;12.47;;
8944;SDS011;4507;40.232;29.132;2022-09-13T00:06:07;31.07;;;15.23;;
8944;SDS011;4507;40.232;29.132;2022-09-13T00:08:38;32.47;;;16.40;;
8944;SDS011;4507;40.232;29.132;2022-09-13T00:11:12;30.77;;;16.33;;
8944;SDS011;4507;40.232;29.132;2022-09-13T00:13:43;35.27;;;16.83;;
8944;SDS011;4507;40.232;29.132;2022-09-13T00:16:12;35.77;;;17.77;;
8944;SDS011;4507;40.232;29.132;2022-09-13T00:18:43;24.93;;;15.07;;
8944;SDS011;4507;40.232;29.132;2022-09-13T00:21:14;30.50;;;15.23;;
8944;SDS011;4507;40.232;29.132;2022-09-13T00:23:44;22.73;;;12.90;;
8944;SDS011;4507;40.232;29.132;2022-09-13T00:26:16;21.43;;;13.50;;
8944;SDS011;4507;40.232;29.132;2022-09-13T00:28:47;17.40;;;10.40;;
8944;SDS011;4507;40.232;29.132;2022-09-13T00:31:19;14.80;;;9.73;;
8944;SDS011;4507;40.232;29.132;2022-09-13T00:33:50;18.10;;;10.43;;
8944;SDS011;4507;40.232;29.132;2022-09-13T00:36:19;37.73;;;12.20;;
8944;SDS011;4507;40.232;29.132;2022-09-13T00:38:48;28.40;;;11.73;;
8944;SDS011;4507;40.232;29.132;2022-09-13T00:41:19;17.00;;;9.87;;
8944;SDS011;4507;40.232;29.132;2022-09-13T00:43:49;13.17;;;8.90;;
8944;SDS011;4507;40.232;29.132;2022-09-13T00:46:22;13.80;;;8.43;;
8944;SDS011;4507;40.232;29.132;2022-09-13T00:48:56;11.97;;;9.57;;
8944;SDS011;4507;40.232;29.132;2022-09-13T00:51:28;19.57;;;10.20;;
8944;SDS011;4507;40.232;29.132;2022-09-13T00:53:58;21.40;;;11.37;;
8944;SDS011;4507;40.232;29.132;2022-09-13T00:56:32;22.10;;;10.73;;
8944;SDS011;4507;40.232;29.132;2022-09-13T00:59:05;17.60;;;11.63;;
8944;SDS011;4507;40.232;29.132;2022-09-13T01:01:39;26.80;;;14.17;;
8944;SDS011;4507;40.232;29.132;2022-09-13T01:04:12;25.40;;;14.67;;
8944;SDS011;4507;40.232;29.132;2022-09-13T01:06:42;26.43;;;16.10;;
8944;SDS011;4507;40.232;29.132;2022-09-13T01:09:12;32.60;;;18.83;;
8944;SDS011;4507;40.232;29.132;2022-09-13T01:11:44;31.50;;;19.70;;
8944;SDS011;4507;40.232;29.132;2022-09-13T01:14:16;38.60;;;20.93;;
8944;SDS011;4507;40.232;29.132;2022-09-13T01:16:46;35.63;;;22.17;;
8944;SDS011;4507;40.232;29.132;2022-09-13T01:19:15;36.87;;;23.73;;
8944;SDS011;4507;40.232;29.132;2022-09-13T01:28:13;36.87;;;22.03;;
8944;SDS011;4507;40.232;29.132;2022-09-13T01:30:57;35.47;;;21.57;;
8944;SDS011;4507;40.232;29.132;2022-09-13T01:33:37;31.97;;;20.90;;
8944;SDS011;4507;40.232;29.132;2022-09-13T01:39:45;36.67;;;21.23;;
8944;SDS011;4507;40.232;29.132;2022-09-13T01:42:27;42.30;;;23.23;;
8944;SDS011;4507;40.232;29.132;2022-09-13T01:45:06;37.57;;;23.50;;
8944;SDS011;4507;40.232;29.132;2022-09-13T01:47:51;42.13;;;24.53;;
8944;SDS011;4507;40.232;29.132;2022-09-13T01:50:30;36.63;;;23.73;;
8944;SDS011;4507;40.232;29.132;2022-09-13T01:53:06;36.10;;;22.53;;
8944;SDS011;4507;40.232;29.132;2022-09-13T01:55:47;39.57;;;25.77;;
8944;SDS011;4507;40.232;29.132;2022-09-13T01:58:21;46.53;;;29.63;;
8944;SDS011;4507;40.232;29.132;2022-09-13T02:00:57;52.77;;;34.20;;
8944;SDS011;4507;40.232;29.132;2022-09-13T02:03:34;53.40;;;35.57;;
8944;SDS011;4507;40.232;29.132;2022-09-13T02:06:07;43.87;;;28.83;;
8944;SDS011;4507;40.232;29.132;2022-09-13T02:08:40;31.33;;;21.17;;
8944;SDS011;4507;40.232;29.132;2022-09-13T02:11:12;40.23;;;28.30;;
8944;SDS011;4507;40.232;29.132;2022-09-13T02:13:45;40.00;;;26.00;;
8944;SDS011;4507;40.232;29.132;2022-09-13T02:16:18;39.57;;;27.30;;
8944;SDS011;4507;40.232;29.132;2022-09-13T02:18:55;27.43;;;19.77;;
8944;SDS011;4507;40.232;29.132;2022-09-13T02:21:28;32.03;;;21.60;;
8944;SDS011;4507;40.232;29.132;2022-09-13T02:24:07;28.47;;;19.90;;
8944;SDS011;4507;40.232;29.132;2022-09-13T02:26:38;24.77;;;16.77;;
8944;SDS011;4507;40.232;29.132;2022-09-13T02:29:10;22.30;;;14.60;;
8944;SDS011;4507;40.232;29.132;2022-09-13T02:31:43;21.60;;;14.57;;
8944;SDS011;4507;40.232;29.132;2022-09-13T02:34:17;18.17;;;12.90;;
8944;SDS011;4507;40.232;29.132;2022-09-13T02:36:50;17.57;;;13.17;;
8944;SDS011;4507;40.232;29.132;2022-09-13T02:39:22;18.87;;;13.00;;
8944;SDS011;4507;40.232;29.132;2022-09-13T02:41:55;19.47;;;11.87;;
8944;SDS011;4507;40.232;29.132;2022-09-13T02:44:28;15.13;;;11.40;;
8944;SDS011;4507;40.232;29.132;2022-09-13T02:47:05;15.17;;;10.90;;
8944;SDS011;4507;40.232;29.132;2022-09-13T02:49:46;15.73;;;11.27;;
8944;SDS011;4507;40.232;29.132;2022-09-13T02:52:21;15.70;;;12.07;;
8944;SDS011;4507;40.232;29.132;2022-09-13T02:55:02;16.17;;;11.77;;
8944;SDS011;4507;40.232;29.132;2022-09-13T02:57:41;16.90;;;13.33;;
8944;SDS011;4507;40.232;29.132;2022-09-13T03:00:21;21.70;;;13.60;;
8944;SDS011;4507;40.232;29.132;2022-09-13T03:02:50;21.70;;;14.30;;
8944;SDS011;4507;40.232;29.132;2022-09-13T03:05:22;18.27;;;14.40;;
8944;SDS011;4507;40.232;29.132;2022-09-13T03:07:51;15.37;;;12.73;;
8944;SDS011;4507;40.232;29.132;2022-09-13T03:10:20;16.97;;;11.90;;
8944;SDS011;4507;40.232;29.132;2022-09-13T03:12:56;17.23;;;11.97;;
8944;SDS011;4507;40.232;29.132;2022-09-13T03:15:43;13.23;;;11.10;;
8944;SDS011;4507;40.232;29.132;2022-09-13T03:18:28;12.80;;;11.30;;
8944;SDS011;4507;40.232;29.132;2022-09-13T03:21:15;15.67;;;11.47;;
8944;SDS011;4507;40.232;29.132;2022-09-13T03:23:57;12.13;;;9.97;;
8944;SDS011;4507;40.232;29.132;2022-09-13T03:26:38;12.27;;;9.43;;
8944;SDS011;4507;40.232;29.132;2022-09-13T03:29:15;13.50;;;8.83;;
8944;SDS011;4507;40.232;29.132;2022-09-13T03:31:57;12.83;;;8.80;;
8944;SDS011;4507;40.232;29.132;2022-09-13T03:34:45;11.67;;;7.90;;
8944;SDS011;4507;40.232;29.132;2022-09-13T03:37:23;12.43;;;7.87;;
8944;SDS011;4507;40.232;29.132;2022-09-13T03:39:56;8.30;;;7.30;;
8944;SDS011;4507;40.232;29.132;2022-09-13T03:42:28;22.30;;;8.50;;
8944;SDS011;4507;40.232;29.132;2022-09-13T03:45:01;19.37;;;8.20;;
8944;SDS011;4507;40.232;29.132;2022-09-13T03:47:32;16.93;;;8.33;;
8944;SDS011;4507;40.232;29.132;2022-09-13T03:50:04;12.80;;;7.70;;
8944;SDS011;4507;40.232;29.132;2022-09-13T03:52:37;18.77;;;8.50;;
8944;SDS011;4507;40.232;29.132;2022-09-13T03:55:11;17.73;;;9.27;;
8944;SDS011;4507;40.232;29.132;2022-09-13T03:57:41;17.77;;;9.00;;
8944;SDS011;4507;40.232;29.132;2022-09-13T04:00:11;21.40;;;11.90;;
8944;SDS011;4507;40.232;29.132;2022-09-13T04:02:43;26.80;;;21.13;;
8944;SDS011;4507;40.232;29.132;2022-09-13T04:05:13;24.53;;;19.30;;
8944;SDS011;4507;40.232;29.132;2022-09-13T04:07:43;21.43;;;15.47;;
8944;SDS011;4507;40.232;29.132;2022-09-13T04:10:13;14.77;;;13.13;;
8944;SDS011;4507;40.232;29.132;2022-09-13T04:12:42;20.67;;;12.87;;
8944;SDS011;4507;40.232;29.132;2022-09-13T04:15:11;20.10;;;12.87;;
8944;SDS011;4507;40.232;29.132;2022-09-13T04:17:40;22.83;;;12.83;;
8944;SDS011;4507;40.232;29.132;2022-09-13T04:20:09;17.90;;;12.07;;
8944;SDS011;4507;40.232;29.132;2022-09-13T04:22:38;20.03;;;12.97;;
8944;SDS011;4507;40.232;29.132;2022-09-13T04:25:09;24.63;;;13.03;;
8944;SDS011;4507;40.232;29.132;2022-09-13T04:27:38;33.23;;;14.70;;
8944;SDS011;4507;40.232;29.132;2022-09-13T04:30:07;22.17;;;14.80;;
8944;SDS011;4507;40.232;29.132;2022-09-13T04:32:37;43.97;;;20.30;;
8944;SDS011;4507;40.232;29.132;2022-09-13T04:35:08;28.93;;;20.23;;
8944;SDS011;4507;40.232;29.132;2022-09-13T04:37:38;34.23;;;22.07;;
8944;SDS011;4507;40.232;29.132;2022-09-13T04:40:09;47.07;;;30.37;;
8944;SDS011;4507;40.232;29.132;2022-09-13T04:42:39;44.40;;;29.43;;
8944;SDS011;4507;40.232;29.132;2022-09-13T04:45:08;35.53;;;27.97;;
8944;SDS011;4507;40.232;29.132;2022-09-13T04:47:37;37.93;;;29.17;;
8944;SDS011;4507;40.232;29.132;2022-09-13T04:50:07;50.27;;;26.43;;
8944;SDS011;4507;40.232;29.132;2022-09-13T04:52:36;41.77;;;26.03;;
8944;SDS011;4507;40.232;29.132;2022-09-13T04:55:05;36.47;;;25.17;;
8944;SDS011;4507;40.232;29.132;2022-09-13T04:57:36;43.57;;;25.17;;
8944;SDS011;4507;40.232;29.132;2022-09-13T05:00:06;39.17;;;25.40;;
8944;SDS011;4507;40.232;29.132;2022-09-13T05:02:36;36.07;;;22.07;;
8944;SDS011;4507;40.232;29.132;2022-09-13T05:05:05;37.70;;;21.83;;
8944;SDS011;4507;40.232;29.132;2022-09-13T05:07:35;37.07;;;20.20;;
8944;SDS011;4507;40.232;29.132;2022-09-13T05:10:04;36.67;;;21.00;;
8944;SDS011;4507;40.232;29.132;2022-09-13T05:12:34;35.80;;;20.30;;
8944;SDS011;4507;40.232;29.132;2022-09-13T05:15:04;27.80;;;20.20;;
8944;SDS011;4507;40.232;29.132;2022-09-13T05:17:34;29.63;;;21.80;;
8944;SDS011;4507;40.232;29.132;2022-09-13T05:20:03;36.50;;;22.87;;
8944;SDS011;4507;40.232;29.132;2022-09-13T05:22:32;33.33;;;22.07;;
8944;SDS011;4507;40.232;29.132;2022-09-13T05:25:01;35.23;;;22.10;;
8944;SDS011;4507;40.232;29.132;2022-09-13T05:27:30;38.33;;;20.47;;
8944;SDS011;4507;40.232;29.132;2022-09-13T05:30:01;32.70;;;20.50;;
8944;SDS011;4507;40.232;29.132;2022-09-13T05:32:31;29.37;;;18.83;;
8944;SDS011;4507;40.232;29.132;2022-09-13T05:35:00;30.03;;;17.87;;
8944;SDS011;4507;40.232;29.132;2022-09-13T05:37:29;32.50;;;17.50;;
8944;SDS011;4507;40.232;29.132;2022-09-13T05:39:58;25.13;;;17.70;;
8944;SDS011;4507;40.232;29.132;2022-09-13T05:42:43;27.63;;;15.90;;
8944;SDS011;4507;40.232;29.132;2022-09-13T05:45:14;27.57;;;15.53;;
8944;SDS011;4507;40.232;29.132;2022-09-13T05:47:43;27.47;;;14.93;;
8944;SDS011;4507;40.232;29.132;2022-09-13T05:50:12;28.57;;;13.53;;
8944;SDS011;4507;40.232;29.132;2022-09-13T05:52:58;18.47;;;13.87;;
8944;SDS011;4507;40.232;29.132;2022-09-13T05:55:27;21.43;;;13.20;;
8944;SDS011;4507;40.232;29.132;2022-09-13T05:57:56;28.47;;;13.60;;
8944;SDS011;4507;40.232;29.132;2022-09-13T06:00:27;26.63;;;14.17;;
8944;SDS011;4507;40.232;29.132;2022-09-13T06:02:57;25.90;;;14.07;;
8944;SDS011;4507;40.232;29.132;2022-09-13T06:05:26;33.80;;;14.83;;
8944;SDS011;4507;40.232;29.132;2022-09-13T06:07:57;48.80;;;15.97;;
8944;SDS011;4507;40.232;29.132;2022-09-13T06:10:26;25.87;;;14.23;;
8944;SDS011;4507;40.232;29.132;2022-09-13T06:12:56;32.80;;;15.23;;
8944;SDS011;4507;40.232;29.132;2022-09-13T06:15:25;35.43;;;15.90;;
8944;SDS011;4507;40.232;29.132;2022-09-13T06:17:55;23.53;;;15.03;;
8944;SDS011;4507;40.232;29.132;2022-09-13T06:20:24;30.10;;;16.13;;
8944;SDS011;4507;40.232;29.132;2022-09-13T06:22:53;33.23;;;16.20;;
8944;SDS011;4507;40.232;29.132;2022-09-13T06:25:40;30.73;;;15.27;;
8944;SDS011;4507;40.232;29.132;2022-09-13T06:28:10;23.80;;;14.87;;
8944;SDS011;4507;40.232;29.132;2022-09-13T06:30:40;24.93;;;14.50;;
8944;SDS011;4507;40.232;29.132;2022-09-13T06:33:09;23.53;;;15.20;;
8944;SDS011;4507;40.232;29.132;2022-09-13T06:35:38;26.73;;;17.87;;
8944;SDS011;4507;40.232;29.132;2022-09-13T06:38:07;25.17;;;17.50;;
8944;SDS011;4507;40.232;29.132;2022-09-13T06:40:36;32.57;;;17.80;;
8944;SDS011;4507;40.232;29.132;2022-09-13T06:43:06;36.30;;;20.67;;
8944;SDS011;4507;40.232;29.132;2022-09-13T06:45:35;31.87;;;20.37;;
8944;SDS011;4507;40.232;29.132;2022-09-13T06:48:05;35.37;;;20.87;;
8944;SDS011;4507;40.232;29.132;2022-09-13T06:50:34;31.67;;;21.30;;
8944;SDS011;4507;40.232;29.132;2022-09-13T06:53:03;32.63;;;22.83;;
8944;SDS011;4507;40.232;29.132;2022-09-13T06:55:32;28.13;;;21.47;;
8944;SDS011;4507;40.232;29.132;2022-09-13T06:58:01;28.10;;;21.33;;
8944;SDS011;4507;40.232;29.132;2022-09-13T07:00:30;35.23;;;21.80;;
8944;SDS011;4507;40.232;29.132;2022-09-13T07:02:59;27.87;;;21.60;;
8944;SDS011;4507;40.232;29.132;2022-09-13T07:05:29;34.47;;;21.40;;
8944;SDS011;4507;40.232;29.132;2022-09-13T07:07:58;33.03;;;22.40;;
8944;SDS011;4507;40.232;29.132;2022-09-13T07:10:27;34.53;;;22.30;;
8944;SDS011;4507;40.232;29.132;2022-09-13T07:13:00;31.40;;;21.87;;
8944;SDS011;4507;40.232;29.132;2022-09-13T07:15:29;35.20;;;22.10;;
8944;SDS011;4507;40.232;29.132;2022-09-13T07:17:58;33.33;;;21.23;;
8944;SDS011;4507;40.232;29.132;2022-09-13T07:20:27;32.93;;;20.70;;
8944;SDS011;4507;40.232;29.132;2022-09-13T07:22:58;32.30;;;20.80;;
8944;SDS011;4507;40.232;29.132;2022-09-13T07:25:27;31.40;;;21.23;;
8944;SDS011;4507;40.232;29.132;2022-09-13T07:27:56;29.30;;;20.37;;
8944;SDS011;4507;40.232;29.132;2022-09-13T07:30:25;34.60;;;20.37;;
8944;SDS011;4507;40.232;29.132;2022-09-13T07:32:54;27.10;;;18.93;;
8944;SDS011;4507;40.232;29.132;2022-09-13T07:35:23;24.67;;;18.33;;
8944;SDS011;4507;40.232;29.132;2022-09-13T07:37:53;26.53;;;16.10;;
8944;SDS011;4507;40.232;29.132;2022-09-13T07:40:22;26.37;;;16.17;;
8944;SDS011;4507;40.232;29.132;2022-09-13T07:42:51;31.10;;;15.57;;
8944;SDS011;4507;40.232;29.132;2022-09-13T07:45:20;27.37;;;16.47;;
8944;SDS011;4507;40.232;29.132;2022-09-13T07:47:49;27.87;;;16.23;;
8944;SDS011;4507;40.232;29.132;2022-09-13T07:50:39;34.03;;;15.33;;
8944;SDS011;4507;40.232;29.132;2022-09-13T07:53:09;44.23;;;16.67;;
8944;SDS011;4507;40.232;29.132;2022-09-13T07:55:38;29.70;;;16.03;;
8944;SDS011;4507;40.232;29.132;2022-09-13T07:58:07;29.03;;;12.57;;
8944;SDS011;4507;40.232;29.132;2022-09-13T08:00:36;11.03;;;7.57;;
8944;SDS011;4507;40.232;29.132;2022-09-13T08:03:06;10.57;;;7.27;;
8944;SDS011;4507;40.232;29.132;2022-09-13T08:05:38;16.40;;;9.20;;
8944;SDS011;4507;40.232;29.132;2022-09-13T08:08:08;11.60;;;9.10;;
8944;SDS011;4507;40.232;29.132;2022-09-13T08:10:37;7.40;;;6.30;;
8944;SDS011;4507;40.232;29.132;2022-09-13T08:13:06;8.33;;;7.00;;
8944;SDS011;4507;40.232;29.132;2022-09-13T08:15:36;11.57;;;7.43;;
8944;SDS011;4507;40.232;29.132;2022-09-13T08:18:05;18.27;;;9.80;;
8944;SDS011;4507;40.232;29.132;2022-09-13T08:20:35;19.07;;;9.20;;
8944;SDS011;4507;40.232;29.132;2022-09-13T08:23:05;16.10;;;9.10;;
8944;SDS011;4507;40.232;29.132;2022-09-13T08:25:35;13.53;;;8.07;;
8944;SDS011;4507;40.232;29.132;2022-09-13T08:28:06;14.07;;;8.80;;
8944;SDS011;4507;40.232;29.132;2022-09-13T08:30:54;26.70;;;9.60;;
8944;SDS011;4507;40.232;29.132;2022-09-13T08:33:23;17.70;;;8.63;;
8944;SDS011;4507;40.232;29.132;2022-09-13T08:35:53;21.53;;;9.07;;
8944;SDS011;4507;40.232;29.132;2022-09-13T08:38:24;19.23;;;8.00;;
8944;SDS011;4507;40.232;29.132;2022-09-13T08:40:55;14.70;;;8.13;;
8944;SDS011;4507;40.232;29.132;2022-09-13T08:43:29;10.73;;;7.67;;
8944;SDS011;4507;40.232;29.132;2022-09-13T08:46:06;17.60;;;7.37;;
8944;SDS011;4507;40.232;29.132;2022-09-13T08:48:40;15.57;;;8.20;;
8944;SDS011;4507;40.232;29.132;2022-09-13T08:51:14;17.33;;;7.77;;
